Charter Quote
Worldwide +1-877-727-2538 Call
Select Language Lang
SAFETY RELIABILITY EXPERIENCE

Kastner Aaf Airport (RJTR) - Jet Charter Services

AIRPORT INFORMATION
ICAORJTR
LOCATIONTokyo, Japan
FACILITY TYPEAIRPORT

At Paramount Business Jets you can hire chartered private jets to and from Kastner Aaf Airport with as little as 4 hours of notice. All flights booked via Paramount Business Jets are operated by certified direct air carriers that meet and exceed the FAA part 135 and 121 protocol or a foreign equivalent safety authority. Furthermore, Paramount Business Jets subscribes to ARGUS for their third party safety checks of operators, aircraft, and crews prior each and every flight to and from Kastner Aaf Airport and worldwide.

  • Quote a trip using Kastner Aaf Airport or call us 24/7 - 365 days a year at +1-877-727-2538.
Questions? Call +1-877-727-2538

METAR Weather Data at Kastner Aaf Airport, RJTR

STATIONRJTR
OBSERVEDTue Jan 15, 04:53 UTC
NOWWed Jan 23, 23:05 UTC
AGE210:12 hr ago
WINDcalm
VISIBILITY5 miles
CONDITIONShaze
CLOUDSovercast
TEMP43°F (6°C)
DEWPT37°F (3°C)
HUMIDITY81%
BAROMETER1018 hPa (30.05 in Hg)
METARRJTR 150453Z AUTO 00000KT 5SM HZ BKN036 OVC047 06/03 A3005 RMK AO2 RAE53 SLP181

Call us on +1-877-727-2538 (24 Hours) to Hire a Private Jet or Get a Quick Quote.

Find Airports Near any Location

Processing
...